Time;durP1;ratioP1;P1;durP2;ratioP2;P2;SDS_P1;SDS_P2;PMS_P1;PMS_P2;Temp;Humidity;BMP_temperature;BMP_pressure;BME280_temperature;BME280_humidity;BME280_pressure;Samples;Min_cycle;Max_cycle;Signal;HPM_P1;HPM_P2
2023/07/27 00:00:20;;;;;;;6.40;4.60;;;;;;;;;;108439;1250;22560;-79
2023/07/27 00:03:06;;;;;;;9.10;6.40;;;;;;;;;;108445;1249;22560;-79
2023/07/27 00:05:33;;;;;;;7.10;5.10;;;;;;;;;;108379;1249;22537;-80
2023/07/27 00:07:59;;;;;;;7.90;5.10;;;;;;;;;;108367;1249;22555;-79
2023/07/27 00:10:27;;;;;;;6.10;4.70;;;;;;;;;;108466;1250;25220;-79
2023/07/27 00:12:54;;;;;;;9.40;5.50;;;;;;;;;;108279;1250;25580;-79
2023/07/27 00:15:20;;;;;;;7.00;5.10;;;;;;;;;;108317;1250;22541;-80
2023/07/27 00:17:47;;;;;;;8.10;5.40;;;;;;;;;;108419;1249;22689;-78
2023/07/27 00:20:13;;;;;;;7.10;4.10;;;;;;;;;;108337;1250;24219;-80
2023/07/27 00:22:39;;;;;;;9.90;4.70;;;;;;;;;;108357;1249;26321;-80
2023/07/27 00:25:06;;;;;;;8.10;4.90;;;;;;;;;;108351;1249;22553;-78
2023/07/27 00:27:33;;;;;;;8.10;5.20;;;;;;;;;;109035;1250;24191;-79
2023/07/27 00:29:59;;;;;;;14.00;8.20;;;;;;;;;;108456;1250;24243;-80
2023/07/27 00:32:26;;;;;;;8.90;5.50;;;;;;;;;;108644;1248;23231;-79
2023/07/27 00:34:53;;;;;;;8.70;5.80;;;;;;;;;;110999;1249;23039;-78
2023/07/27 00:37:19;;;;;;;8.20;5.50;;;;;;;;;;109071;1248;22578;-79
2023/07/27 00:39:46;;;;;;;9.40;5.80;;;;;;;;;;107725;1252;22521;-78
2023/07/27 00:42:12;;;;;;;7.30;5.40;;;;;;;;;;108481;1252;26410;-78
2023/07/27 00:44:38;;;;;;;7.60;5.40;;;;;;;;;;107656;1249;24280;-79
2023/07/27 00:47:05;;;;;;;6.00;4.30;;;;;;;;;;107674;1253;25254;-78
2023/07/27 00:49:31;;;;;;;9.20;4.80;;;;;;;;;;107657;1250;24210;-79
2023/07/27 00:51:58;;;;;;;12.30;5.20;;;;;;;;;;107644;1252;25314;-79
2023/07/27 00:54:24;;;;;;;6.40;4.60;;;;;;;;;;107654;1249;22579;-77
2023/07/27 00:56:51;;;;;;;8.70;5.00;;;;;;;;;;107623;1252;22647;-78
2023/07/27 00:59:17;;;;;;;10.10;6.10;;;;;;;;;;107617;1249;26412;-79
2023/07/27 01:01:43;;;;;;;6.50;4.40;;;;;;;;;;107671;1250;22556;-79
2023/07/27 01:04:10;;;;;;;7.30;5.80;;;;;;;;;;107626;1250;25769;-78
2023/07/27 01:06:37;;;;;;;6.20;5.20;;;;;;;;;;107660;1250;24195;-78
2023/07/27 01:09:03;;;;;;;6.70;5.10;;;;;;;;;;107655;1249;22904;-78
2023/07/27 01:11:38;;;;;;;6.90;5.20;;;;;;;;;;107660;1249;22779;-77
2023/07/27 01:14:24;;;;;;;7.30;5.60;;;;;;;;;;107704;1250;22525;-77
2023/07/27 01:17:02;;;;;;;10.20;5.50;;;;;;;;;;107622;1252;22553;-78
2023/07/27 01:19:47;;;;;;;10.10;5.70;;;;;;;;;;107665;1249;22677;-77
2023/07/27 01:22:26;;;;;;;7.10;5.20;;;;;;;;;;107690;1250;23140;-78
2023/07/27 01:25:07;;;;;;;8.70;5.50;;;;;;;;;;107661;1250;22535;-78
2023/07/27 01:27:43;;;;;;;7.90;5.00;;;;;;;;;;107654;1251;25225;-79
2023/07/27 01:30:21;;;;;;;6.40;5.30;;;;;;;;;;107651;1254;22535;-78
2023/07/27 01:32:49;;;;;;;6.90;4.90;;;;;;;;;;107671;1250;22996;-77
2023/07/27 01:35:16;;;;;;;15.10;5.90;;;;;;;;;;107717;1249;22534;-78
2023/07/27 01:37:42;;;;;;;9.60;5.90;;;;;;;;;;107660;1253;25266;-78
2023/07/27 01:40:09;;;;;;;11.80;6.00;;;;;;;;;;108258;1249;22518;-79
2023/07/27 01:42:35;;;;;;;9.20;5.40;;;;;;;;;;107635;1249;25354;-78
2023/07/27 01:45:02;;;;;;;10.50;4.80;;;;;;;;;;107686;1249;23337;-78
2023/07/27 01:47:28;;;;;;;11.30;7.00;;;;;;;;;;107623;1249;23262;-78
2023/07/27 01:49:54;;;;;;;19.30;8.10;;;;;;;;;;107639;1250;22537;-78
2023/07/27 01:52:21;;;;;;;8.90;6.00;;;;;;;;;;107658;1250;23120;-78
2023/07/27 01:54:47;;;;;;;8.70;5.60;;;;;;;;;;107695;1253;22518;-78
2023/07/27 01:57:13;;;;;;;11.90;7.10;;;;;;;;;;107676;1253;22532;-77
2023/07/27 01:59:40;;;;;;;11.30;6.10;;;;;;;;;;107670;1253;24492;-78
2023/07/27 02:02:07;;;;;;;9.80;6.00;;;;;;;;;;107807;1250;22514;-80
2023/07/27 02:04:33;;;;;;;7.70;5.30;;;;;;;;;;107674;1249;25297;-78
2023/07/27 02:06:59;;;;;;;10.00;5.50;;;;;;;;;;107623;1249;25367;-80
2023/07/27 02:09:26;;;;;;;12.30;6.60;;;;;;;;;;107672;1252;25370;-79
2023/07/27 02:11:55;;;;;;;6.80;4.70;;;;;;;;;;107646;1249;22521;-80
2023/07/27 02:14:27;;;;;;;5.40;4.70;;;;;;;;;;107683;1249;24225;-79
2023/07/27 02:16:54;;;;;;;8.00;5.40;;;;;;;;;;107712;1249;22605;-79
2023/07/27 02:19:21;;;;;;;10.20;5.70;;;;;;;;;;110809;1249;22422;-78
2023/07/27 02:21:47;;;;;;;10.60;5.40;;;;;;;;;;110757;1249;22399;-78
2023/07/27 02:24:14;;;;;;;8.60;4.90;;;;;;;;;;110825;1249;22572;-78
2023/07/27 02:26:40;;;;;;;8.40;5.30;;;;;;;;;;110744;1249;22238;-77
2023/07/27 02:29:07;;;;;;;7.60;5.30;;;;;;;;;;110752;1249;22852;-78
2023/07/27 02:31:34;;;;;;;8.10;5.30;;;;;;;;;;110733;1249;22324;-77
2023/07/27 02:34:00;;;;;;;12.50;6.20;;;;;;;;;;110770;1249;22287;-78
2023/07/27 02:36:26;;;;;;;23.60;11.20;;;;;;;;;;110763;1249;22340;-78
2023/07/27 02:38:53;;;;;;;22.20;11.40;;;;;;;;;;110769;1249;22786;-78
2023/07/27 02:41:19;;;;;;;18.40;10.10;;;;;;;;;;110833;1249;22372;-78
2023/07/27 02:43:45;;;;;;;10.80;7.50;;;;;;;;;;110882;1250;22758;-77
2023/07/27 02:46:12;;;;;;;13.00;6.70;;;;;;;;;;110941;1249;22151;-77
2023/07/27 02:48:38;;;;;;;16.60;5.70;;;;;;;;;;110920;1248;22296;-78
2023/07/27 02:51:04;;;;;;;8.70;6.00;;;;;;;;;;110893;1249;23022;-78
2023/07/27 02:53:31;;;;;;;9.80;5.20;;;;;;;;;;110921;1248;22865;-77
2023/07/27 02:56:01;;;;;;;8.60;5.50;;;;;;;;;;110885;1249;22355;-77
2023/07/27 02:58:27;;;;;;;8.30;4.90;;;;;;;;;;110909;1249;23058;-78
2023/07/27 03:00:54;;;;;;;6.80;4.50;;;;;;;;;;110933;1248;23121;-78
2023/07/27 03:03:21;;;;;;;9.30;5.40;;;;;;;;;;110827;1249;22232;-77
2023/07/27 03:05:47;;;;;;;5.90;4.50;;;;;;;;;;110970;1249;22937;-77
2023/07/27 03:08:14;;;;;;;7.70;5.00;;;;;;;;;;110967;1249;23068;-77
2023/07/27 03:10:40;;;;;;;7.00;4.60;;;;;;;;;;110929;1249;22350;-78
2023/07/27 03:13:06;;;;;;;10.60;5.40;;;;;;;;;;110729;1250;25530;-77
2023/07/27 03:15:33;;;;;;;9.20;6.20;;;;;;;;;;107734;1250;22521;-80
2023/07/27 03:17:59;;;;;;;9.70;4.40;;;;;;;;;;109632;1250;23240;-79
2023/07/27 03:20:25;;;;;;;6.90;4.60;;;;;;;;;;110904;1250;22234;-80
2023/07/27 03:22:52;;;;;;;6.80;4.30;;;;;;;;;;109924;1250;25098;-79
2023/07/27 03:25:18;;;;;;;6.50;4.90;;;;;;;;;;107727;1249;24417;-80
2023/07/27 03:27:45;;;;;;;6.40;4.10;;;;;;;;;;107690;1250;22534;-78
2023/07/27 03:30:11;;;;;;;7.70;5.70;;;;;;;;;;107717;1248;25239;-78
2023/07/27 03:32:37;;;;;;;23.70;5.70;;;;;;;;;;107707;1249;23178;-79
2023/07/27 03:35:04;;;;;;;5.50;4.30;;;;;;;;;;107865;1249;22574;-79
2023/07/27 03:37:30;;;;;;;5.80;3.90;;;;;;;;;;107738;1252;22578;-79
2023/07/27 03:39:57;;;;;;;7.30;4.30;;;;;;;;;;107699;1252;22545;-79
2023/07/27 03:42:23;;;;;;;7.00;5.80;;;;;;;;;;107637;1249;25333;-78
2023/07/27 03:44:50;;;;;;;9.30;4.60;;;;;;;;;;107643;1250;24205;-79
2023/07/27 03:47:17;;;;;;;6.60;4.70;;;;;;;;;;107610;1249;22517;-79
2023/07/27 03:49:43;;;;;;;11.20;5.40;;;;;;;;;;107622;1249;24197;-78
2023/07/27 03:52:10;;;;;;;20.40;5.40;;;;;;;;;;107641;1250;22661;-78
2023/07/27 03:54:36;;;;;;;14.70;8.30;;;;;;;;;;107692;1253;22658;-79
2023/07/27 03:57:03;;;;;;;61.00;16.10;;;;;;;;;;107665;1250;22641;-79
2023/07/27 03:59:29;;;;;;;51.30;17.20;;;;;;;;;;107950;1249;22517;-80
2023/07/27 04:01:55;;;;;;;44.80;12.50;;;;;;;;;;107606;1250;23734;-79
2023/07/27 04:04:22;;;;;;;26.10;9.70;;;;;;;;;;107720;1249;25333;-79
2023/07/27 04:06:48;;;;;;;45.10;16.70;;;;;;;;;;107749;1251;23392;-79
2023/07/27 04:09:15;;;;;;;13.50;8.80;;;;;;;;;;108157;1249;23192;-80
2023/07/27 04:11:41;;;;;;;13.40;7.50;;;;;;;;;;108155;1255;22643;-80
2023/07/27 04:14:08;;;;;;;8.90;5.40;;;;;;;;;;108233;1249;22713;-79
2023/07/27 04:16:34;;;;;;;15.20;6.00;;;;;;;;;;108244;1249;22576;-80
2023/07/27 04:19:01;;;;;;;6.80;5.20;;;;;;;;;;108245;1249;22658;-80
2023/07/27 04:21:27;;;;;;;6.70;4.60;;;;;;;;;;108191;1249;22894;-80
2023/07/27 04:23:53;;;;;;;8.60;4.40;;;;;;;;;;108248;1249;22962;-80
2023/07/27 04:26:20;;;;;;;7.50;4.30;;;;;;;;;;108212;1249;25354;-79
2023/07/27 04:28:46;;;;;;;6.00;4.00;;;;;;;;;;108254;1249;22779;-79
2023/07/27 04:31:13;;;;;;;8.30;3.30;;;;;;;;;;108253;1250;22544;-80
2023/07/27 04:33:39;;;;;;;5.50;4.00;;;;;;;;;;108257;1249;27715;-79
2023/07/27 04:36:05;;;;;;;4.50;3.50;;;;;;;;;;108217;1249;25330;-79
2023/07/27 04:38:32;;;;;;;6.50;4.10;;;;;;;;;;108273;1249;22523;-80
2023/07/27 04:40:59;;;;;;;5.30;3.80;;;;;;;;;;108266;1250;25471;-79
2023/07/27 04:43:25;;;;;;;5.10;3.80;;;;;;;;;;108291;1249;23756;-79
2023/07/27 04:45:51;;;;;;;10.20;3.70;;;;;;;;;;108313;1250;22535;-79
2023/07/27 04:48:18;;;;;;;8.50;5.00;;;;;;;;;;108406;1248;22613;-79
2023/07/27 04:50:44;;;;;;;6.30;4.10;;;;;;;;;;108197;1249;22622;-79
2023/07/27 04:53:10;;;;;;;8.00;4.90;;;;;;;;;;108302;1250;22518;-79
2023/07/27 04:55:37;;;;;;;6.80;3.70;;;;;;;;;;108297;1251;23707;-79
2023/07/27 04:58:03;;;;;;;5.60;3.70;;;;;;;;;;108266;1249;25356;-79
2023/07/27 05:00:30;;;;;;;5.00;3.40;;;;;;;;;;108215;1252;24241;-79
2023/07/27 05:02:58;;;;;;;13.10;4.80;;;;;;;;;;108671;1249;25509;-80
2023/07/27 05:05:24;;;;;;;4.80;3.90;;;;;;;;;;108180;1250;22549;-80
2023/07/27 05:07:50;;;;;;;8.30;4.30;;;;;;;;;;108147;1254;22549;-79
2023/07/27 05:10:17;;;;;;;5.40;3.50;;;;;;;;;;108223;1253;22528;-79
2023/07/27 05:12:43;;;;;;;7.30;4.30;;;;;;;;;;108208;1249;22533;-80
2023/07/27 05:15:09;;;;;;;5.80;3.70;;;;;;;;;;108279;1254;22573;-80
2023/07/27 05:17:36;;;;;;;5.30;4.10;;;;;;;;;;108248;1249;22628;-80
2023/07/27 05:20:02;;;;;;;5.30;3.80;;;;;;;;;;108244;1249;24298;-79
2023/07/27 05:22:29;;;;;;;6.80;4.00;;;;;;;;;;108313;1249;22521;-79
2023/07/27 05:24:55;;;;;;;6.60;3.90;;;;;;;;;;108243;1249;23167;-79
2023/07/27 05:27:21;;;;;;;6.60;4.50;;;;;;;;;;108568;1252;25350;-79
2023/07/27 05:29:48;;;;;;;5.80;3.60;;;;;;;;;;108237;1249;22667;-79
2023/07/27 05:32:14;;;;;;;6.30;4.10;;;;;;;;;;108294;1249;23180;-79
2023/07/27 05:34:41;;;;;;;6.50;5.40;;;;;;;;;;108178;1250;22917;-79
2023/07/27 05:37:07;;;;;;;6.40;4.30;;;;;;;;;;108268;1249;22540;-79
2023/07/27 05:39:33;;;;;;;11.10;5.10;;;;;;;;;;108160;1251;22657;-79
2023/07/27 05:42:00;;;;;;;9.30;4.30;;;;;;;;;;108172;1249;23204;-79
2023/07/27 05:44:27;;;;;;;7.10;4.00;;;;;;;;;;108188;1251;22527;-79
2023/07/27 05:46:54;;;;;;;10.70;5.60;;;;;;;;;;108410;1249;23349;-80
2023/07/27 05:49:20;;;;;;;6.50;4.00;;;;;;;;;;108326;1249;22569;-79
2023/07/27 05:51:47;;;;;;;8.80;4.40;;;;;;;;;;108302;1250;25318;-79
2023/07/27 05:54:13;;;;;;;6.80;3.90;;;;;;;;;;108255;1249;25538;-79
2023/07/27 05:56:40;;;;;;;5.20;3.30;;;;;;;;;;108198;1250;26604;-80
2023/07/27 05:59:07;;;;;;;7.30;4.90;;;;;;;;;;108260;1249;25232;-80
2023/07/27 06:01:33;;;;;;;5.50;3.90;;;;;;;;;;108589;1250;23562;-79
2023/07/27 06:04:02;;;;;;;6.20;3.30;;;;;;;;;;108730;1253;25292;-79
2023/07/27 06:06:29;;;;;;;6.60;3.50;;;;;;;;;;108350;1250;23903;-79
2023/07/27 06:08:55;;;;;;;7.50;3.70;;;;;;;;;;108593;1250;25497;-80
2023/07/27 06:11:23;;;;;;;5.90;3.00;;;;;;;;;;108269;1250;22687;-79
2023/07/27 06:13:49;;;;;;;5.20;2.80;;;;;;;;;;108600;1253;22619;-80
2023/07/27 06:16:16;;;;;;;5.00;2.30;;;;;;;;;;108306;1249;22563;-79
2023/07/27 06:18:42;;;;;;;8.10;3.10;;;;;;;;;;108495;1249;22521;-79
2023/07/27 06:21:09;;;;;;;4.70;2.60;;;;;;;;;;108522;1249;25214;-79
2023/07/27 06:23:35;;;;;;;4.60;3.00;;;;;;;;;;109459;1249;23037;-80
2023/07/27 06:26:01;;;;;;;4.60;2.50;;;;;;;;;;109018;1250;22552;-78
2023/07/27 06:28:28;;;;;;;5.10;2.50;;;;;;;;;;107816;1249;25392;-78
2023/07/27 06:30:54;;;;;;;4.70;2.80;;;;;;;;;;107783;1250;24170;-79
2023/07/27 06:33:20;;;;;;;4.20;2.90;;;;;;;;;;107794;1250;22585;-78
2023/07/27 06:35:47;;;;;;;4.80;3.00;;;;;;;;;;107699;1250;22529;-79
2023/07/27 06:38:13;;;;;;;4.10;2.60;;;;;;;;;;107729;1250;24227;-79
2023/07/27 06:40:40;;;;;;;7.20;3.00;;;;;;;;;;107692;1249;22535;-78
2023/07/27 06:43:06;;;;;;;5.50;3.20;;;;;;;;;;107853;1249;22518;-78
2023/07/27 06:45:34;;;;;;;4.10;2.30;;;;;;;;;;108052;1249;23264;-78
2023/07/27 06:48:00;;;;;;;3.30;2.20;;;;;;;;;;108227;1251;22951;-78
2023/07/27 06:50:26;;;;;;;3.90;2.50;;;;;;;;;;108016;1250;26482;-78
2023/07/27 06:52:53;;;;;;;4.70;2.00;;;;;;;;;;107966;1249;22520;-78
2023/07/27 06:55:20;;;;;;;10.10;5.50;;;;;;;;;;108049;1254;22524;-78
2023/07/27 06:57:46;;;;;;;5.50;3.40;;;;;;;;;;107973;1250;23127;-79
2023/07/27 07:00:13;;;;;;;3.00;2.10;;;;;;;;;;107904;1249;23267;-78
2023/07/27 07:02:39;;;;;;;8.70;4.30;;;;;;;;;;107789;1250;27378;-79
2023/07/27 07:05:06;;;;;;;9.80;4.70;;;;;;;;;;107811;1250;22518;-78
2023/07/27 07:07:33;;;;;;;4.80;2.30;;;;;;;;;;107656;1250;22514;-78
2023/07/27 07:09:59;;;;;;;6.30;2.80;;;;;;;;;;107608;1252;161530;-79
2023/07/27 07:12:26;;;;;;;4.40;2.40;;;;;;;;;;107641;1251;25237;-78
2023/07/27 07:14:52;;;;;;;5.60;2.70;;;;;;;;;;107925;1250;24251;-78
2023/07/27 07:17:18;;;;;;;5.70;2.90;;;;;;;;;;107955;1249;24370;-79
2023/07/27 07:19:45;;;;;;;4.00;2.60;;;;;;;;;;108055;1250;23310;-78
2023/07/27 07:22:11;;;;;;;5.60;3.40;;;;;;;;;;107839;1250;22524;-78
2023/07/27 07:24:38;;;;;;;4.10;2.10;;;;;;;;;;107966;1253;22555;-78
2023/07/27 07:27:04;;;;;;;2.30;1.70;;;;;;;;;;107930;1249;24543;-78
2023/07/27 07:29:30;;;;;;;3.00;1.80;;;;;;;;;;107618;1249;57701;-79
2023/07/27 07:31:57;;;;;;;2.80;2.10;;;;;;;;;;108640;1250;25510;-80
2023/07/27 07:34:23;;;;;;;4.60;1.80;;;;;;;;;;108698;1250;22532;-80
2023/07/27 07:36:49;;;;;;;4.00;1.80;;;;;;;;;;108600;1252;23035;-80
2023/07/27 07:39:17;;;;;;;5.10;2.50;;;;;;;;;;108372;1249;25470;-80
2023/07/27 07:41:43;;;;;;;8.40;2.30;;;;;;;;;;108234;1249;25578;-77
2023/07/27 07:44:09;;;;;;;3.80;2.10;;;;;;;;;;107876;1250;25274;-78
2023/07/27 07:46:36;;;;;;;3.50;2.40;;;;;;;;;;108027;1254;25303;-78
2023/07/27 07:49:02;;;;;;;4.50;2.00;;;;;;;;;;107816;1249;23278;-77
2023/07/27 07:51:28;;;;;;;2.40;1.70;;;;;;;;;;107717;1250;25249;-77
2023/07/27 07:53:55;;;;;;;2.50;1.70;;;;;;;;;;107850;1254;24279;-78
2023/07/27 07:56:21;;;;;;;2.80;1.90;;;;;;;;;;108050;1249;26022;-79
2023/07/27 07:58:48;;;;;;;3.10;1.90;;;;;;;;;;107832;1249;22552;-79
2023/07/27 08:01:14;;;;;;;3.10;1.90;;;;;;;;;;107931;1250;25382;-79
2023/07/27 08:03:41;;;;;;;5.10;1.80;;;;;;;;;;108661;1249;23263;-80
2023/07/27 08:06:07;;;;;;;3.70;1.80;;;;;;;;;;108501;1249;22838;-79
2023/07/27 08:08:33;;;;;;;2.70;1.50;;;;;;;;;;108353;1250;24249;-80
2023/07/27 08:11:01;;;;;;;3.50;1.70;;;;;;;;;;108302;1250;22527;-79
2023/07/27 08:13:28;;;;;;;2.40;1.60;;;;;;;;;;109129;1253;27491;-79
2023/07/27 08:15:55;;;;;;;2.20;1.60;;;;;;;;;;108577;1250;23795;-79
2023/07/27 08:18:22;;;;;;;3.00;1.20;;;;;;;;;;108566;1250;22555;-80
2023/07/27 08:20:58;;;;;;;3.30;1.90;;;;;;;;;;108646;1249;24351;-80
2023/07/27 08:23:24;;;;;;;3.20;1.10;;;;;;;;;;108688;1253;22665;-80
2023/07/27 08:25:53;;;;;;;2.20;1.60;;;;;;;;;;108736;1249;25375;-79
2023/07/27 08:28:20;;;;;;;2.30;1.30;;;;;;;;;;108595;1250;22549;-80
2023/07/27 08:30:47;;;;;;;2.30;1.50;;;;;;;;;;108583;1250;24183;-80
2023/07/27 08:33:13;;;;;;;3.30;1.20;;;;;;;;;;108532;1249;23184;-79
2023/07/27 08:35:40;;;;;;;3.80;1.50;;;;;;;;;;108641;1251;58872;-80
2023/07/27 08:38:06;;;;;;;2.10;1.10;;;;;;;;;;108434;1253;56974;-80
2023/07/27 08:40:33;;;;;;;1.90;1.20;;;;;;;;;;108401;1250;22654;-80
2023/07/27 08:42:59;;;;;;;2.00;1.30;;;;;;;;;;108397;1250;22535;-80
2023/07/27 08:45:25;;;;;;;2.60;1.50;;;;;;;;;;108323;1254;58535;-79
2023/07/27 08:47:52;;;;;;;3.30;1.20;;;;;;;;;;108361;1250;22882;-79
2023/07/27 08:50:22;;;;;;;3.60;1.70;;;;;;;;;;108292;1249;22561;-79
2023/07/27 08:52:49;;;;;;;4.00;1.30;;;;;;;;;;108335;1249;56278;-79
2023/07/27 08:55:15;;;;;;;9.00;2.90;;;;;;;;;;110137;1250;60121;-80
2023/07/27 08:57:41;;;;;;;3.80;2.00;;;;;;;;;;107968;1254;59601;-80
2023/07/27 09:00:11;;;;;;;3.10;1.60;;;;;;;;;;107661;1251;59708;-80
2023/07/27 09:02:38;;;;;;;3.10;1.80;;;;;;;;;;108895;1250;61337;-79
2023/07/27 09:05:06;;;;;;;1.80;1.20;;;;;;;;;;107670;1253;61232;-80
2023/07/27 09:07:32;;;;;;;2.00;1.10;;;;;;;;;;108205;1255;61009;-80
2023/07/27 09:09:58;;;;;;;3.70;1.20;;;;;;;;;;107958;1249;61188;-80
2023/07/27 09:12:26;;;;;;;2.00;1.20;;;;;;;;;;108952;1249;22547;-80
2023/07/27 09:14:53;;;;;;;2.10;1.10;;;;;;;;;;108428;1250;37674;-80
2023/07/27 09:17:19;;;;;;;13.40;10.10;;;;;;;;;;108342;1250;24917;-80
2023/07/27 09:19:45;;;;;;;3.00;2.30;;;;;;;;;;108343;1249;22538;-80
2023/07/27 09:22:12;;;;;;;4.40;1.30;;;;;;;;;;108333;1249;25823;-80
2023/07/27 09:24:38;;;;;;;1.80;1.20;;;;;;;;;;108489;1249;22546;-80
2023/07/27 09:27:08;;;;;;;4.20;1.90;;;;;;;;;;108286;1253;58471;-80
2023/07/27 09:29:35;;;;;;;2.40;1.10;;;;;;;;;;108422;1249;22685;-80
2023/07/27 09:32:02;;;;;;;2.80;1.50;;;;;;;;;;108345;1249;23184;-81
2023/07/27 09:34:29;;;;;;;1.40;1.10;;;;;;;;;;108400;1250;58519;-80
2023/07/27 09:36:56;;;;;;;4.20;1.50;;;;;;;;;;108416;1251;23425;-80
2023/07/27 09:39:26;;;;;;;2.50;1.40;;;;;;;;;;108539;1250;23702;-82
2023/07/27 09:41:53;;;;;;;3.40;1.40;;;;;;;;;;108759;1250;22628;-75
2023/07/27 09:44:21;;;;;;;1.70;1.10;;;;;;;;;;107866;1253;25467;-80
2023/07/27 09:46:48;;;;;;;1.90;1.20;;;;;;;;;;108574;1250;46810;-81
2023/07/27 09:49:14;;;;;;;2.30;1.30;;;;;;;;;;108490;1249;23182;-80
2023/07/27 09:51:41;;;;;;;3.20;1.70;;;;;;;;;;108045;1254;55136;-81
2023/07/27 09:54:07;;;;;;;5.20;1.30;;;;;;;;;;108295;1251;24239;-80
2023/07/27 09:56:34;;;;;;;3.30;1.50;;;;;;;;;;108164;1250;59304;-80
2023/07/27 09:59:00;;;;;;;1.60;1.00;;;;;;;;;;107901;1250;61096;-80
2023/07/27 10:01:27;;;;;;;3.90;1.40;;;;;;;;;;108133;1253;59166;-80
2023/07/27 10:03:58;;;;;;;2.50;1.20;;;;;;;;;;107842;1256;61229;-82
2023/07/27 10:06:25;;;;;;;3.50;1.60;;;;;;;;;;107889;1250;61232;-80
2023/07/27 10:08:52;;;;;;;2.10;1.00;;;;;;;;;;107775;1250;59712;-81
2023/07/27 10:11:18;;;;;;;2.20;1.40;;;;;;;;;;107737;1253;61926;-81
2023/07/27 10:13:46;;;;;;;9.00;1.50;;;;;;;;;;108040;1253;59544;-81
2023/07/27 10:16:16;;;;;;;3.60;1.20;;;;;;;;;;108047;1253;61337;-71
2023/07/27 10:18:45;;;;;;;3.40;2.50;;;;;;;;;;109806;1251;58893;-75
2023/07/27 10:21:20;;;;;;;3.70;1.60;;;;;;;;;;109635;1251;60043;-75
2023/07/27 10:23:53;;;;;;;4.80;4.20;;;;;;;;;;107081;1251;61224;-81
2023/07/27 10:26:20;;;;;;;3.80;1.90;;;;;;;;;;107604;1249;61244;-81
2023/07/27 10:28:49;;;;;;;1.60;1.40;;;;;;;;;;107472;1254;61235;-81
2023/07/27 10:31:17;;;;;;;2.80;1.40;;;;;;;;;;107701;1253;61331;-81
2023/07/27 10:33:47;;;;;;;1.80;1.00;;;;;;;;;;107553;1254;61232;-81
2023/07/27 10:36:14;;;;;;;1.60;1.10;;;;;;;;;;108338;1250;61240;-82
2023/07/27 10:38:49;;;;;;;2.00;1.30;;;;;;;;;;109089;1251;61349;-81
2023/07/27 10:41:15;;;;;;;4.10;1.40;;;;;;;;;;107566;1250;61441;-81
2023/07/27 10:44:01;;;;;;;4.90;1.50;;;;;;;;;;107556;1255;61138;-81
2023/07/27 10:46:27;;;;;;;2.80;1.20;;;;;;;;;;107666;1256;61119;-81
2023/07/27 10:48:57;;;;;;;1.60;1.20;;;;;;;;;;107594;1254;61206;-82
2023/07/27 10:51:24;;;;;;;2.40;1.40;;;;;;;;;;107566;1251;61157;-82
2023/07/27 10:53:51;;;;;;;1.90;1.20;;;;;;;;;;107460;1250;61201;-82
2023/07/27 10:56:17;;;;;;;3.60;1.60;;;;;;;;;;107502;1251;61283;-82
2023/07/27 10:58:44;;;;;;;3.70;1.30;;;;;;;;;;107611;1253;61215;-76
2023/07/27 11:01:11;;;;;;;4.90;1.50;;;;;;;;;;106980;1252;61162;-89
2023/07/27 11:03:38;;;;;;;1.90;1.10;;;;;;;;;;107591;1250;60331;-88
2023/07/27 11:06:06;;;;;;;6.30;2.30;;;;;;;;;;107598;1251;61268;-90
2023/07/27 11:08:40;;;;;;;3.60;1.30;;;;;;;;;;107466;1253;61433;-77
2023/07/27 11:11:16;;;;;;;2.20;1.30;;;;;;;;;;107656;1251;61276;-82
2023/07/27 11:13:42;;;;;;;1.90;1.10;;;;;;;;;;107611;1252;61178;-82
2023/07/27 11:16:09;;;;;;;1.60;1.10;;;;;;;;;;107805;1250;61334;-83
2023/07/27 11:18:36;;;;;;;2.20;1.10;;;;;;;;;;107611;1253;61266;-81
2023/07/27 11:21:02;;;;;;;1.60;1.10;;;;;;;;;;107600;1250;59120;-80
2023/07/27 11:23:29;;;;;;;1.90;1.10;;;;;;;;;;107674;1251;59917;-78
2023/07/27 11:25:56;;;;;;;3.50;1.20;;;;;;;;;;107047;1251;61245;-81
2023/07/27 11:28:23;;;;;;;1.50;1.20;;;;;;;;;;107664;1250;61333;-81
2023/07/27 11:30:51;;;;;;;3.20;1.10;;;;;;;;;;108338;1255;23101;-81
2023/07/27 11:33:17;;;;;;;3.70;3.10;;;;;;;;;;108127;1250;61314;-81
2023/07/27 11:35:44;;;;;;;2.80;1.80;;;;;;;;;;108556;1249;25390;-82
2023/07/27 11:38:10;;;;;;;4.10;1.20;;;;;;;;;;108394;1251;22549;-82
2023/07/27 11:40:37;;;;;;;3.40;1.90;;;;;;;;;;108525;1251;22551;-82
2023/07/27 11:43:03;;;;;;;5.10;2.10;;;;;;;;;;108345;1253;24195;-82
2023/07/27 11:45:34;;;;;;;2.20;1.20;;;;;;;;;;108503;1253;56341;-82
2023/07/27 11:48:02;;;;;;;2.00;1.00;;;;;;;;;;107720;1250;61121;-82
2023/07/27 11:50:28;;;;;;;3.30;1.30;;;;;;;;;;107692;1253;61283;-82
2023/07/27 11:52:59;;;;;;;1.80;1.20;;;;;;;;;;107642;1253;61113;-82
2023/07/27 11:55:26;;;;;;;2.20;1.20;;;;;;;;;;107872;1253;61151;-82
2023/07/27 11:57:52;;;;;;;1.50;1.20;;;;;;;;;;107520;1255;61253;-82
2023/07/27 12:00:18;;;;;;;2.40;1.30;;;;;;;;;;107632;1252;61264;-82
2023/07/27 12:02:46;;;;;;;5.60;1.30;;;;;;;;;;107666;1252;60782;-82
2023/07/27 12:05:13;;;;;;;2.40;1.20;;;;;;;;;;107762;1250;61338;-82
2023/07/27 12:07:40;;;;;;;1.80;1.10;;;;;;;;;;107666;1254;61238;-82
2023/07/27 12:10:11;;;;;;;4.60;1.50;;;;;;;;;;107597;1251;61150;-82
2023/07/27 12:12:49;;;;;;;2.30;1.40;;;;;;;;;;108079;1250;61180;-82
2023/07/27 12:15:31;;;;;;;3.20;1.70;;;;;;;;;;108521;1251;57023;-82
2023/07/27 12:17:59;;;;;;;2.80;1.20;;;;;;;;;;108447;1251;22525;-83
2023/07/27 12:20:26;;;;;;;1.90;1.00;;;;;;;;;;108666;1253;57768;-82
2023/07/27 12:22:53;;;;;;;4.00;1.30;;;;;;;;;;108231;1254;58881;-83
2023/07/27 12:25:19;;;;;;;14.90;2.00;;;;;;;;;;108117;1251;61129;-82
2023/07/27 12:27:46;;;;;;;8.80;1.40;;;;;;;;;;108504;1251;24203;-82
2023/07/27 12:30:12;;;;;;;2.70;1.30;;;;;;;;;;108407;1251;23254;-82
2023/07/27 12:32:39;;;;;;;2.20;1.30;;;;;;;;;;108538;1251;24357;-82
2023/07/27 12:35:05;;;;;;;4.50;1.20;;;;;;;;;;108618;1251;22616;-82
2023/07/27 12:37:32;;;;;;;2.90;1.90;;;;;;;;;;107956;1250;61223;-82
2023/07/27 12:39:58;;;;;;;2.00;1.20;;;;;;;;;;107727;1253;59176;-82
2023/07/27 12:42:24;;;;;;;2.00;1.40;;;;;;;;;;108119;1251;59774;-82
2023/07/27 12:44:51;;;;;;;2.40;1.30;;;;;;;;;;108245;1251;59884;-82
2023/07/27 12:47:17;;;;;;;3.10;1.50;;;;;;;;;;108351;1251;32566;-81
2023/07/27 12:49:43;;;;;;;3.50;1.90;;;;;;;;;;108359;1250;60012;-82
2023/07/27 12:52:10;;;;;;;4.00;1.80;;;;;;;;;;108420;1250;61137;-82
2023/07/27 12:54:36;;;;;;;3.50;2.20;;;;;;;;;;108486;1251;45671;-82
2023/07/27 12:57:03;;;;;;;5.40;3.70;;;;;;;;;;107956;1251;59128;-81
2023/07/27 12:59:29;;;;;;;3.10;1.80;;;;;;;;;;107842;1251;61221;-81
2023/07/27 13:01:55;;;;;;;7.50;2.90;;;;;;;;;;108717;1250;61101;-82
2023/07/27 13:04:22;;;;;;;7.10;2.70;;;;;;;;;;107697;1251;61340;-82
2023/07/27 13:06:48;;;;;;;5.50;2.90;;;;;;;;;;107673;1251;61359;-81
2023/07/27 13:09:14;;;;;;;4.20;3.20;;;;;;;;;;107517;1251;61330;-81
2023/07/27 13:11:41;;;;;;;2.80;1.60;;;;;;;;;;107668;1251;61356;-82
2023/07/27 13:14:07;;;;;;;6.40;2.10;;;;;;;;;;107746;1250;61337;-81
2023/07/27 13:16:34;;;;;;;5.00;2.50;;;;;;;;;;107686;1251;61203;-81
2023/07/27 13:19:00;;;;;;;2.70;1.80;;;;;;;;;;107494;1251;61353;-82
2023/07/27 13:21:26;;;;;;;3.90;1.70;;;;;;;;;;107556;1250;61237;-82
2023/07/27 13:23:53;;;;;;;2.20;1.30;;;;;;;;;;107538;1251;61205;-82
2023/07/27 13:26:19;;;;;;;5.90;1.50;;;;;;;;;;107612;1251;61308;-81
2023/07/27 13:28:46;;;;;;;15.70;2.10;;;;;;;;;;107467;1251;61336;-82
2023/07/27 13:31:14;;;;;;;3.60;1.60;;;;;;;;;;107511;1249;59947;-82
2023/07/27 13:33:40;;;;;;;5.30;1.80;;;;;;;;;;107553;1251;61461;-82
2023/07/27 13:36:06;;;;;;;5.70;1.50;;;;;;;;;;107636;1250;60129;-82
2023/07/27 13:38:33;;;;;;;2.70;1.30;;;;;;;;;;107641;1252;61209;-83
2023/07/27 13:40:59;;;;;;;2.80;1.30;;;;;;;;;;108138;1250;61343;-82
2023/07/27 13:43:25;;;;;;;2.70;1.60;;;;;;;;;;108139;1251;61311;-82
2023/07/27 13:45:52;;;;;;;2.20;1.20;;;;;;;;;;107586;1251;61356;-82
2023/07/27 13:48:18;;;;;;;2.80;2.20;;;;;;;;;;107554;1251;61394;-82
2023/07/27 13:50:44;;;;;;;4.10;1.90;;;;;;;;;;107649;1250;61308;-82
2023/07/27 13:53:12;;;;;;;6.40;2.70;;;;;;;;;;107620;1251;61346;-82
2023/07/27 13:55:39;;;;;;;;;;;;;;;;;;107678;1254;61129;-82
2023/07/27 13:58:05;;;;;;;2.20;1.70;;;;;;;;;;107593;1251;60816;-82
2023/07/27 14:00:32;;;;;;;5.50;2.80;;;;;;;;;;107576;1251;61122;-82
2023/07/27 14:02:58;;;;;;;6.60;3.60;;;;;;;;;;107678;1251;61220;-82
2023/07/27 14:05:25;;;;;;;4.10;2.30;;;;;;;;;;108031;1251;61213;-82
2023/07/27 14:07:51;;;;;;;5.60;2.40;;;;;;;;;;107769;1250;61242;-82
2023/07/27 14:10:18;;;;;;;4.40;1.80;;;;;;;;;;107768;1251;61231;-82
2023/07/27 14:12:44;;;;;;;2.60;1.40;;;;;;;;;;108012;1251;61239;-83
2023/07/27 14:15:10;;;;;;;5.60;1.60;;;;;;;;;;107908;1251;59449;-82
2023/07/27 14:17:37;;;;;;;4.00;1.80;;;;;;;;;;107726;1253;61340;-82
2023/07/27 14:20:04;;;;;;;3.10;1.40;;;;;;;;;;107598;1251;61330;-82
2023/07/27 14:22:35;;;;;;;3.40;1.40;;;;;;;;;;107348;1250;61334;-82
2023/07/27 14:25:02;;;;;;;2.70;1.90;;;;;;;;;;107424;1250;62295;-82
2023/07/27 14:27:29;;;;;;;1.70;1.40;;;;;;;;;;107318;1254;61213;-82